Ludington, MI

11:33 AM EDT on July 26, 2017 (GMT -0400)
Mason County

Weather History for KLDM - December, 2012

Change the Weather History Date:

Thursday, December 6, 2012

  Actual Average Record
Temperature  
Mean Temperature 37 °F -  
Max Temperature 44 °F 37 °F 56 °F (1982)
Min Temperature 31 °F 25 °F 3 °F (1958)
Degree Days  
Heating Degree Days 28    
Moisture  
Dew Point 28 °F    
Average Humidity 70    
Maximum Humidity 82    
Minimum Humidity 64    
Precipitation  
Precipitation 0.00 in - - ()
Sea Level Pressure  
Sea Level Pressure 30.03 in    
Wind  
Wind Speed 9 mph (South)    
Max Wind Speed 16 mph    
Max Gust Speed 23 mph    
Visibility 10 miles    
Events      
Averages and records for this station are not official NWS values.
T = Trace of Precipitation, MM = Missing Value Source: NWS Daily Summary

Daily Weather History Graph

Daily Weather History Graph

Search for Another Location

Airport or City:

Trip Planner

Search our weather history database for the weather conditions in past years. The results will help you decide how hot, cold, wet, or windy it might be!

Date:

Astronomy

Dec. 06, 2012 Rise Set
Actual Time 8:05 AM EST 5:07 PM EST
Civil Twilight 7:33 AM EST 5:40 PM EST
Nautical Twilight 6:57 AM EST 6:16 PM EST
Astronomical Twilight 6:22 AM EST 6:51 PM EST
Moon 12:07 AM EST (12/6) 12:46 PM EST (12/6)
Length of Visible Light 10h 07m
Length of Day
9h 01m
Waning Gibbous, 49% of the Moon is Illuminated
Dec 6
Waning Gibbous
Dec 13
New
Dec 20
First Quarter
Dec 28
Full
Jan 4
Last Quarter

Hourly Weather History & Observations

Time (EST) Temp. Windchill Dew Point Humidity Pressure Visibility Wind Dir Wind Speed Gust Speed Precip Events Conditions
12:15 AM 31.6 °F 24.4 °F 22.1 °F 68% 30.25 in 10.0 mi SSE 8.1 mph 16.1 mph N/A   Clear
12:35 AM 31.6 °F 24.4 °F 21.7 °F 67% 30.25 in 10.0 mi SSE 8.1 mph - N/A   Clear
12:55 AM 32.2 °F 25.0 °F 22.6 °F 68% 30.24 in 10.0 mi SSE 8.1 mph - N/A   Clear
1:15 AM 32.5 °F 26.2 °F 22.8 °F 67% 30.24 in 10.0 mi SSE 6.9 mph - N/A   Clear
1:35 AM 32.5 °F 27.1 °F 22.3 °F 66% 30.24 in 10.0 mi SSE 5.8 mph - N/A   Clear
1:55 AM 32.5 °F 28.1 °F 22.6 °F 67% 30.24 in 10.0 mi SSE 4.6 mph - N/A   Clear
2:15 AM 32.5 °F 25.5 °F 22.6 °F 67% 30.23 in 10.0 mi SSE 8.1 mph - N/A   Clear
2:35 AM 32.5 °F 26.2 °F 22.5 °F 66% 30.22 in 10.0 mi SSE 6.9 mph - N/A   Clear
2:55 AM 32.5 °F 25.5 °F 22.1 °F 65% 30.22 in 10.0 mi SSE 8.1 mph - N/A   Clear
3:15 AM 32.5 °F 24.8 °F 21.9 °F 65% 30.23 in 10.0 mi SSE 9.2 mph - N/A   Clear
3:35 AM 32.5 °F 25.5 °F 22.1 °F 65% 30.22 in 10.0 mi SSE 8.1 mph - N/A   Scattered Clouds
3:55 AM 32.5 °F 23.7 °F 21.7 °F 64% 30.21 in 10.0 mi SSE 11.5 mph - N/A   Mostly Cloudy
4:15 AM 32.5 °F 24.2 °F 21.7 °F 64% 30.20 in 10.0 mi SSE 10.4 mph 21.9 mph N/A   Overcast
4:35 AM 32.5 °F 24.2 °F 21.9 °F 65% 30.18 in 10.0 mi SSE 10.4 mph - N/A   Overcast
4:55 AM 32.5 °F 24.2 °F 22.1 °F 65% 30.17 in 10.0 mi SSE 10.4 mph 18.4 mph N/A   Overcast
5:15 AM 32.5 °F 23.7 °F 22.3 °F 66% 30.16 in 10.0 mi SSE 11.5 mph 18.4 mph N/A   Overcast
5:34 AM 32.5 °F 23.7 °F 22.3 °F 66% 30.17 in 10.0 mi South 11.5 mph 16.1 mph N/A   Overcast
5:55 AM 32.5 °F 23.2 °F 22.1 °F 65% 30.15 in 10.0 mi South 12.7 mph - N/A   Mostly Cloudy
6:15 AM 32.5 °F 25.5 °F 21.9 °F 65% 30.15 in 10.0 mi South 8.1 mph - N/A   Scattered Clouds
6:35 AM 32.5 °F 24.2 °F 22.1 °F 65% 30.15 in 10.0 mi South 10.4 mph - N/A   Clear
7:14 AM 31.6 °F 23.1 °F 21.7 °F 67% 30.14 in 10.0 mi SSE 10.4 mph - N/A   Clear
7:35 AM 31.6 °F 23.1 °F 21.7 °F 67% 30.13 in 10.0 mi SSE 10.4 mph - N/A   Clear
7:55 AM 31.6 °F 24.4 °F 21.7 °F 67% 30.13 in 10.0 mi SSE 8.1 mph - N/A   Clear
8:15 AM 32.5 °F 24.8 °F 23.0 °F 68% 30.12 in 10.0 mi South 9.2 mph - N/A   Mostly Cloudy
8:35 AM 32.5 °F 23.7 °F 22.8 °F 67% 30.12 in 10.0 mi South 11.5 mph 16.1 mph N/A   Overcast
8:55 AM 32.5 °F 24.2 °F 22.6 °F 67% 30.12 in 10.0 mi South 10.4 mph - N/A   Overcast
9:15 AM 32.5 °F 24.2 °F 22.6 °F 67% 30.11 in 10.0 mi South 10.4 mph - N/A   Overcast
9:35 AM 32.5 °F 25.5 °F 22.6 °F 67% 30.11 in 10.0 mi SSE 8.1 mph - N/A   Overcast
9:55 AM 35.1 °F 27.9 °F 25.0 °F 67% 30.10 in 10.0 mi SSE 9.2 mph - N/A   Overcast
10:15 AM 35.1 °F 26.9 °F 25.0 °F 67% 30.09 in 10.0 mi SSE 11.5 mph 17.3 mph N/A   Overcast
10:35 AM 35.1 °F 26.4 °F 25.3 °F 68% - 10.0 mi South 12.7 mph - N/A   Mostly Cloudy
10:55 AM 35.1 °F 26.9 °F 25.3 °F 68% 30.08 in 10.0 mi SSE 11.5 mph 18.4 mph N/A   Overcast
11:15 AM 35.1 °F 26.4 °F 25.3 °F 68% 30.07 in 10.0 mi South 12.7 mph - N/A   Overcast
11:35 AM 35.1 °F 27.9 °F 25.5 °F 68% 30.06 in 10.0 mi SSE 9.2 mph - N/A   Overcast
11:55 AM 35.1 °F 26.4 °F 25.7 °F 69% 30.04 in 10.0 mi South 12.7 mph 17.3 mph N/A   Overcast
12:15 PM 35.1 °F 26.9 °F 25.7 °F 69% 30.02 in 10.0 mi SSE 11.5 mph - N/A   Overcast
12:35 PM 35.4 °F 27.3 °F 26.1 °F 69% 30.00 in 10.0 mi SSE 11.5 mph - N/A   Overcast
12:55 PM 36.9 °F 30.1 °F 27.1 °F 68% 30.01 in 10.0 mi South 9.2 mph - N/A   Overcast
1:15 PM 37.6 °F 28.8 °F 28.0 °F 68% 29.97 in 10.0 mi South 15.0 mph - N/A   Overcast
1:35 PM 37.6 °F 30.0 °F 28.2 °F 69% 29.94 in 10.0 mi SSE 11.5 mph 18.4 mph N/A   Overcast
1:55 PM 37.6 °F 32.3 °F 28.4 °F 69% 29.96 in 10.0 mi South 6.9 mph - N/A   Overcast
2:15 PM 37.6 °F 31.6 °F 28.4 °F 69% 29.95 in 10.0 mi SSE 8.1 mph - N/A   Scattered Clouds
2:35 PM 38.3 °F 33.2 °F 29.1 °F 70% 29.94 in 10.0 mi South 6.9 mph - N/A   Scattered Clouds
2:55 PM 40.1 °F 32.7 °F 31.1 °F 70% 29.93 in 10.0 mi South 12.7 mph 16.1 mph N/A   Mostly Cloudy
3:15 PM 40.1 °F 33.2 °F 31.1 °F 70% 29.91 in 10.0 mi South 11.5 mph - N/A   Mostly Cloudy
3:35 PM 40.1 °F 33.2 °F 31.1 °F 70% 29.90 in 10.0 mi SSE 11.5 mph - N/A   Overcast
3:55 PM 40.1 °F 34.1 °F 31.3 °F 71% 29.90 in 10.0 mi South 9.2 mph - N/A   Mostly Cloudy
4:15 PM 40.1 °F 34.7 °F 31.6 °F 72% 29.89 in 10.0 mi SSE 8.1 mph - N/A   Mostly Cloudy
4:35 PM 40.1 °F 33.6 °F 32.0 °F 73% 29.88 in 10.0 mi SSE 10.4 mph - N/A   Scattered Clouds
4:55 PM 40.1 °F 34.7 °F 32.0 °F 73% 29.87 in 10.0 mi SSE 8.1 mph - N/A   Scattered Clouds
5:15 PM 40.1 °F 34.7 °F 32.0 °F 73% 29.88 in 10.0 mi South 8.1 mph - N/A   Overcast
5:35 PM 40.1 °F 33.2 °F 32.0 °F 73% 29.87 in 10.0 mi South 11.5 mph - N/A   Overcast
5:55 PM 40.1 °F 36.1 °F 32.0 °F 73% 29.90 in 10.0 mi SSW 5.8 mph - N/A   Overcast
6:15 PM 40.6 °F 37.5 °F 32.7 °F 73% 29.90 in 10.0 mi South 4.6 mph - N/A   Mostly Cloudy
6:35 PM 41.4 °F 35.7 °F 33.8 °F 74% 29.90 in 10.0 mi South 9.2 mph - N/A   Mostly Cloudy
6:55 PM 41.4 °F 35.7 °F 33.8 °F 74% 29.89 in 10.0 mi SSW 9.2 mph 16.1 mph N/A   Mostly Cloudy
7:15 PM 42.8 °F 35.8 °F 35.8 °F 76% 29.89 in 10.0 mi SSW 13.8 mph - N/A   Overcast
7:35 PM 42.8 °F 36.2 °F 36.1 °F 77% 29.88 in 10.0 mi SSW 12.7 mph - N/A   Mostly Cloudy
7:55 PM 42.8 °F 35.1 °F 36.3 °F 78% 29.89 in 10.0 mi SSW 16.1 mph 23.0 mph N/A   Scattered Clouds
8:15 PM 42.8 °F 35.8 °F 36.7 °F 79% 29.89 in 10.0 mi SSW 13.8 mph 20.7 mph N/A   Mostly Cloudy
8:35 PM 42.8 °F 35.4 °F 36.5 °F 78% 29.87 in 10.0 mi SSW 15.0 mph - N/A   Scattered Clouds
8:55 PM 42.8 °F 37.0 °F 36.7 °F 79% 29.89 in 10.0 mi SSW 10.4 mph 16.1 mph N/A   Scattered Clouds
9:35 PM 43.9 °F 37.9 °F 38.5 °F 81% 29.89 in 10.0 mi SW 11.5 mph 19.6 mph N/A   Overcast
9:55 PM 43.9 °F 36.5 °F 38.5 °F 81% 29.88 in 10.0 mi SW 16.1 mph - N/A   Overcast
10:15 PM 43.9 °F 37.9 °F 38.5 °F 81% 29.88 in 7.0 mi SW 11.5 mph - N/A   Overcast
10:36 PM 43.9 °F 37.9 °F 38.7 °F 82% 29.88 in 7.0 mi SW 11.5 mph - N/A   Overcast
10:55 PM 43.9 °F 38.3 °F 38.5 °F 81% 29.87 in 7.0 mi SW 10.4 mph 16.1 mph N/A   Overcast
11:15 PM 43.9 °F 37.5 °F 38.1 °F 80% 29.87 in 10.0 mi SW 12.7 mph 17.3 mph N/A   Overcast
11:35 PM 43.9 °F 38.3 °F 37.9 °F 80% 29.88 in 10.0 mi SW 10.4 mph - N/A   Overcast
11:55 PM 43.9 °F 38.3 °F 37.9 °F 80% 29.88 in 10.0 mi SW 10.4 mph - N/A   Overcast